sensor_id;sensor_type;location;lat;lon;timestamp;pressure;altitude;pressure_sealevel;temperature;humidity
29315;BME280;16320;53.954;9.506;2022-12-07T00:00:50;100992.50;;;2.41;100.00
29315;BME280;16320;53.954;9.506;2022-12-07T00:03:57;100986.47;;;2.41;100.00
29315;BME280;16320;53.954;9.506;2022-12-07T00:07:05;100996.88;;;2.37;100.00
29315;BME280;16320;53.954;9.506;2022-12-07T00:10:09;100990.81;;;2.37;100.00
29315;BME280;16320;53.954;9.506;2022-12-07T00:13:13;100996.84;;;2.39;100.00
29315;BME280;16320;53.954;9.506;2022-12-07T00:16:20;100996.81;;;2.42;100.00
29315;BME280;16320;53.954;9.506;2022-12-07T00:19:25;100996.75;;;2.44;100.00
29315;BME280;16320;53.954;9.506;2022-12-07T00:22:29;100998.50;;;2.45;100.00
29315;BME280;16320;53.954;9.506;2022-12-07T00:25:34;100988.91;;;2.50;100.00
29315;BME280;16320;53.954;9.506;2022-12-07T00:28:41;100997.50;;;2.53;100.00
29315;BME280;16320;53.954;9.506;2022-12-07T00:31:45;100995.75;;;2.57;100.00
29315;BME280;16320;53.954;9.506;2022-12-07T00:34:50;100991.38;;;2.59;100.00
29315;BME280;16320;53.954;9.506;2022-12-07T00:37:54;100989.69;;;2.55;100.00
29315;BME280;16320;53.954;9.506;2022-12-07T00:41:02;100982.03;;;2.47;100.00
29315;BME280;16320;53.954;9.506;2022-12-07T00:44:07;100979.50;;;2.44;100.00
29315;BME280;16320;53.954;9.506;2022-12-07T00:47:12;100976.06;;;2.42;100.00
29315;BME280;16320;53.954;9.506;2022-12-07T00:50:17;100977.78;;;2.42;100.00
29315;BME280;16320;53.954;9.506;2022-12-07T00:53:21;100969.13;;;2.43;100.00
29315;BME280;16320;53.954;9.506;2022-12-07T00:56:28;100967.41;;;2.42;100.00
29315;BME280;16320;53.954;9.506;2022-12-07T00:59:33;100963.16;;;2.39;100.00
29315;BME280;16320;53.954;9.506;2022-12-07T01:02:37;100952.81;;;2.37;100.00
29315;BME280;16320;53.954;9.506;2022-12-07T01:05:54;100956.25;;;2.38;100.00
29315;BME280;16320;53.954;9.506;2022-12-07T01:08:59;100966.59;;;2.38;100.00
29315;BME280;16320;53.954;9.506;2022-12-07T01:12:05;100958.81;;;2.40;100.00
29315;BME280;16320;53.954;9.506;2022-12-07T01:15:10;100953.63;;;2.40;100.00
29315;BME280;16320;53.954;9.506;2022-12-07T01:18:14;100963.09;;;2.42;100.00
29315;BME280;16320;53.954;9.506;2022-12-07T01:21:23;100963.97;;;2.43;100.00
29315;BME280;16320;53.954;9.506;2022-12-07T01:24:28;100961.38;;;2.43;100.00
29315;BME280;16320;53.954;9.506;2022-12-07T01:27:34;100962.22;;;2.42;100.00
29315;BME280;16320;53.954;9.506;2022-12-07T01:30:38;100964.00;;;2.40;100.00
29315;BME280;16320;53.954;9.506;2022-12-07T01:33:55;100970.91;;;2.41;100.00
29315;BME280;16320;53.954;9.506;2022-12-07T01:37:00;100958.78;;;2.43;100.00
29315;BME280;16320;53.954;9.506;2022-12-07T01:40:07;100967.34;;;2.48;100.00
29315;BME280;16320;53.954;9.506;2022-12-07T01:43:17;100962.06;;;2.54;100.00
29315;BME280;16320;53.954;9.506;2022-12-07T01:46:22;100975.06;;;2.52;100.00
29315;BME280;16320;53.954;9.506;2022-12-07T01:52:35;100958.69;;;2.49;100.00
29315;BME280;16320;53.954;9.506;2022-12-07T01:55:45;100959.59;;;2.45;100.00
29315;BME280;16320;53.954;9.506;2022-12-07T01:58:52;100963.13;;;2.41;100.00
29315;BME280;16320;53.954;9.506;2022-12-07T02:01:59;100954.50;;;2.38;100.00
29315;BME280;16320;53.954;9.506;2022-12-07T02:05:07;100963.16;;;2.39;100.00
29315;BME280;16320;53.954;9.506;2022-12-07T02:08:12;100964.03;;;2.36;100.00
29315;BME280;16320;53.954;9.506;2022-12-07T02:11:18;100957.13;;;2.35;100.00
29315;BME280;16320;53.954;9.506;2022-12-07T02:14:23;100958.09;;;2.30;100.00
29315;BME280;16320;53.954;9.506;2022-12-07T02:17:58;100956.41;;;2.24;100.00
29315;BME280;16320;53.954;9.506;2022-12-07T02:25:16;100960.69;;;2.28;100.00
29315;BME280;16320;53.954;9.506;2022-12-07T02:28:51;100949.44;;;2.31;100.00
29315;BME280;16320;53.954;9.506;2022-12-07T02:35:58;100950.31;;;2.28;100.00
29315;BME280;16320;53.954;9.506;2022-12-07T02:39:09;100940.81;;;2.29;100.00
29315;BME280;16320;53.954;9.506;2022-12-07T02:42:26;100946.00;;;2.27;100.00
29315;BME280;16320;53.954;9.506;2022-12-07T02:45:32;100946.03;;;2.24;100.00
29315;BME280;16320;53.954;9.506;2022-12-07T02:48:39;100946.03;;;2.24;100.00
29315;BME280;16320;53.954;9.506;2022-12-07T02:51:46;100951.28;;;2.23;100.00
29315;BME280;16320;53.954;9.506;2022-12-07T02:54:51;100950.44;;;2.19;100.00
29315;BME280;16320;53.954;9.506;2022-12-07T03:08:23;100959.16;;;2.15;100.00
29315;BME280;16320;53.954;9.506;2022-12-07T03:11:55;100954.00;;;2.12;100.00
29315;BME280;16320;53.954;9.506;2022-12-07T03:15:21;100956.63;;;2.09;100.00
29315;BME280;16320;53.954;9.506;2022-12-07T03:18:33;100942.88;;;2.04;100.00
29315;BME280;16320;53.954;9.506;2022-12-07T03:21:54;100949.75;;;2.05;100.00
29315;BME280;16320;53.954;9.506;2022-12-07T03:25:06;100940.38;;;1.97;100.00
29315;BME280;16320;53.954;9.506;2022-12-07T03:28:17;100935.22;;;1.94;100.00
29315;BME280;16320;53.954;9.506;2022-12-07T03:31:32;100930.88;;;1.96;100.00
29315;BME280;16320;53.954;9.506;2022-12-07T03:34:53;100931.81;;;1.92;100.00
29315;BME280;16320;53.954;9.506;2022-12-07T03:38:05;100932.69;;;1.88;100.00
29315;BME280;16320;53.954;9.506;2022-12-07T03:41:23;100927.53;;;1.87;100.00
29315;BME280;16320;53.954;9.506;2022-12-07T03:44:31;100931.88;;;1.86;100.00
29315;BME280;16320;53.954;9.506;2022-12-07T03:48:00;100934.44;;;1.89;100.00
29315;BME280;16320;53.954;9.506;2022-12-07T03:51:46;100933.66;;;1.81;100.00
29315;BME280;16320;53.954;9.506;2022-12-07T03:55:18;100931.91;;;1.83;100.00
29315;BME280;16320;53.954;9.506;2022-12-07T03:58:25;100929.31;;;1.83;100.00
29315;BME280;16320;53.954;9.506;2022-12-07T04:01:31;100934.53;;;1.80;100.00
29315;BME280;16320;53.954;9.506;2022-12-07T04:04:36;100940.66;;;1.73;100.00
29315;BME280;16320;53.954;9.506;2022-12-07T04:07:41;100938.03;;;1.76;100.00
29315;BME280;16320;53.954;9.506;2022-12-07T04:10:46;100937.13;;;1.80;100.00
29315;BME280;16320;53.954;9.506;2022-12-07T04:13:51;100935.31;;;1.85;100.00
29315;BME280;16320;53.954;9.506;2022-12-07T04:17:14;100933.69;;;1.79;100.00
29315;BME280;16320;53.954;9.506;2022-12-07T04:20:18;100931.09;;;1.79;100.00
29315;BME280;16320;53.954;9.506;2022-12-07T04:23:23;100928.53;;;1.76;100.00
29315;BME280;16320;53.954;9.506;2022-12-07T04:26:28;100931.13;;;1.75;100.00
29315;BME280;16320;53.954;9.506;2022-12-07T04:29:33;100920.81;;;1.72;100.00
29315;BME280;16320;53.954;9.506;2022-12-07T04:32:37;100924.34;;;1.68;100.00
29315;BME280;16320;53.954;9.506;2022-12-07T04:35:43;100929.53;;;1.64;100.00
29315;BME280;16320;53.954;9.506;2022-12-07T04:38:47;100933.03;;;1.60;100.00
29315;BME280;16320;53.954;9.506;2022-12-07T04:41:52;100922.69;;;1.57;100.00
29315;BME280;16320;53.954;9.506;2022-12-07T04:44:57;100929.66;;;1.52;100.00
29315;BME280;16320;53.954;9.506;2022-12-07T04:48:02;100929.75;;;1.44;100.00
29315;BME280;16320;53.954;9.506;2022-12-07T04:51:07;100928.91;;;1.44;100.00
29315;BME280;16320;53.954;9.506;2022-12-07T04:54:14;100916.88;;;1.41;100.00
29315;BME280;16320;53.954;9.506;2022-12-07T04:57:18;100922.09;;;1.37;100.00
29315;BME280;16320;53.954;9.506;2022-12-07T05:00:23;100922.94;;;1.37;100.00
29315;BME280;16320;53.954;9.506;2022-12-07T05:03:27;100930.69;;;1.39;100.00
29315;BME280;16320;53.954;9.506;2022-12-07T05:06:32;100919.50;;;1.37;100.00
29315;BME280;16320;53.954;9.506;2022-12-07T05:09:36;100908.25;;;1.38;100.00
29315;BME280;16320;53.954;9.506;2022-12-07T05:12:41;100904.81;;;1.36;100.00
29315;BME280;16320;53.954;9.506;2022-12-07T05:15:47;100904.81;;;1.36;100.00
29315;BME280;16320;53.954;9.506;2022-12-07T05:18:52;100903.97;;;1.37;100.00
29315;BME280;16320;53.954;9.506;2022-12-07T05:21:57;100900.50;;;1.36;100.00
29315;BME280;16320;53.954;9.506;2022-12-07T05:25:02;100904.81;;;1.36;100.00
29315;BME280;16320;53.954;9.506;2022-12-07T05:28:07;100891.88;;;1.36;100.00
29315;BME280;16320;53.954;9.506;2022-12-07T05:31:11;100899.66;;;1.36;100.00
29315;BME280;16320;53.954;9.506;2022-12-07T05:34:15;100897.03;;;1.37;100.00
29315;BME280;16320;53.954;9.506;2022-12-07T05:37:20;100896.16;;;1.40;100.00
29315;BME280;16320;53.954;9.506;2022-12-07T05:40:25;100899.59;;;1.40;100.00
29315;BME280;16320;53.954;9.506;2022-12-07T05:43:30;100902.19;;;1.40;100.00
29315;BME280;16320;53.954;9.506;2022-12-07T05:46:37;100901.38;;;1.37;100.00
29315;BME280;16320;53.954;9.506;2022-12-07T05:49:45;100899.66;;;1.36;100.00
29315;BME280;16320;53.954;9.506;2022-12-07T05:52:50;100892.72;;;1.38;100.00
29315;BME280;16320;53.954;9.506;2022-12-07T05:55:55;100894.47;;;1.36;100.00
29315;BME280;16320;53.954;9.506;2022-12-07T05:59:04;100896.22;;;1.35;100.00
29315;BME280;16320;53.954;9.506;2022-12-07T06:02:27;100884.13;;;1.36;100.00
29315;BME280;16320;53.954;9.506;2022-12-07T06:05:32;100889.31;;;1.36;100.00
29315;BME280;16320;53.954;9.506;2022-12-07T06:08:38;100886.72;;;1.36;100.00
29315;BME280;16320;53.954;9.506;2022-12-07T06:11:43;100878.94;;;1.36;100.00
29315;BME280;16320;53.954;9.506;2022-12-07T06:15:06;100882.41;;;1.35;100.00
29315;BME280;16320;53.954;9.506;2022-12-07T06:18:12;100889.31;;;1.33;100.00
29315;BME280;16320;53.954;9.506;2022-12-07T07:06:29;100898.31;;;1.75;100.00
29315;BME280;16320;53.954;9.506;2022-12-07T09:42:04;100874.28;;;2.82;100.00
29315;BME280;16320;53.954;9.506;2022-12-07T09:45:50;100875.09;;;2.86;100.00
29315;BME280;16320;53.954;9.506;2022-12-07T09:49:29;100874.16;;;2.90;100.00
29315;BME280;16320;53.954;9.506;2022-12-07T09:53:10;100873.28;;;2.91;100.00
29315;BME280;16320;53.954;9.506;2022-12-07T09:56:46;100872.34;;;2.95;100.00
29315;BME280;16320;53.954;9.506;2022-12-07T10:00:25;100875.72;;;2.99;100.00
29315;BME280;16320;53.954;9.506;2022-12-07T10:08:07;100873.88;;;3.05;100.00
29315;BME280;16320;53.954;9.506;2022-12-07T10:11:57;100864.34;;;3.07;100.00
29315;BME280;16320;53.954;9.506;2022-12-07T10:15:12;100873.72;;;3.15;100.00
29315;BME280;16320;53.954;9.506;2022-12-07T10:18:50;100875.47;;;3.14;100.00
29315;BME280;16320;53.954;9.506;2022-12-07T10:22:35;100861.69;;;3.10;100.00
29315;BME280;16320;53.954;9.506;2022-12-07T10:30:25;100866.72;;;3.18;100.00
29315;BME280;16320;53.954;9.506;2022-12-07T10:34:08;100858.94;;;3.18;100.00
29315;BME280;16320;53.954;9.506;2022-12-07T10:37:35;100860.69;;;3.18;100.00
29315;BME280;16320;53.954;9.506;2022-12-07T10:51:13;100859.44;;;3.37;100.00
29315;BME280;16320;53.954;9.506;2022-12-07T11:10:53;100795.88;;;3.55;100.00
29315;BME280;16320;53.954;9.506;2022-12-07T11:14:37;100794.22;;;3.53;100.00
29315;BME280;16320;53.954;9.506;2022-12-07T17:20:48;100806.59;;;1.26;100.00
29315;BME280;16320;53.954;9.506;2022-12-07T17:24:02;100798.81;;;1.28;100.00
29315;BME280;16320;53.954;9.506;2022-12-07T17:27:08;100797.09;;;1.27;100.00
29315;BME280;16320;53.954;9.506;2022-12-07T17:30:14;100801.38;;;1.30;100.00
29315;BME280;16320;53.954;9.506;2022-12-07T17:33:19;100798.75;;;1.33;100.00
29315;BME280;16320;53.954;9.506;2022-12-07T17:36:29;100790.94;;;1.36;100.00
29315;BME280;16320;53.954;9.506;2022-12-07T17:39:34;100781.44;;;1.36;100.00
29315;BME280;16320;53.954;9.506;2022-12-07T17:42:39;100770.31;;;1.30;100.00
29315;BME280;16320;53.954;9.506;2022-12-07T17:45:45;100777.22;;;1.31;100.00
29315;BME280;16320;53.954;9.506;2022-12-07T17:48:53;100763.34;;;1.35;100.00
29315;BME280;16320;53.954;9.506;2022-12-07T17:51:58;100771.03;;;1.41;100.00
29315;BME280;16320;53.954;9.506;2022-12-07T17:55:25;100769.25;;;1.44;100.00
29315;BME280;16320;53.954;9.506;2022-12-07T17:58:30;100756.31;;;1.46;100.00
29315;BME280;16320;53.954;9.506;2022-12-07T18:01:36;100743.34;;;1.48;100.00
29315;BME280;16320;53.954;9.506;2022-12-07T18:04:41;100736.50;;;1.43;100.00
29315;BME280;16320;53.954;9.506;2022-12-07T18:07:49;100738.28;;;1.40;100.00
29315;BME280;16320;53.954;9.506;2022-12-07T18:11:00;100742.59;;;1.38;100.00
29315;BME280;16320;53.954;9.506;2022-12-07T18:14:05;100735.75;;;1.35;100.00
29315;BME280;16320;53.954;9.506;2022-12-07T18:17:10;100724.53;;;1.33;100.00
29315;BME280;16320;53.954;9.506;2022-12-07T18:20:14;100722.00;;;1.32;100.00
29315;BME280;16320;53.954;9.506;2022-12-07T18:23:19;100706.53;;;1.28;100.00
29315;BME280;16320;53.954;9.506;2022-12-07T18:26:25;100704.84;;;1.24;100.00
29315;BME280;16320;53.954;9.506;2022-12-07T18:29:29;100701.44;;;1.22;100.00
29315;BME280;16320;53.954;9.506;2022-12-07T18:32:34;100696.25;;;1.22;100.00
29315;BME280;16320;53.954;9.506;2022-12-07T18:35:38;100692.78;;;1.23;100.00
29315;BME280;16320;53.954;9.506;2022-12-07T18:38:43;100698.81;;;1.25;100.00
29315;BME280;16320;53.954;9.506;2022-12-07T18:41:47;100706.50;;;1.32;100.00
29315;BME280;16320;53.954;9.506;2022-12-07T18:44:52;100696.09;;;1.33;100.00
29315;BME280;16320;53.954;9.506;2022-12-07T18:47:57;100699.56;;;1.34;100.00
29315;BME280;16320;53.954;9.506;2022-12-07T18:51:05;100697.00;;;1.31;100.00
29315;BME280;16320;53.954;9.506;2022-12-07T18:54:10;100704.72;;;1.34;100.00
29315;BME280;16320;53.954;9.506;2022-12-07T18:57:14;100696.97;;;1.32;100.00
29315;BME280;16320;53.954;9.506;2022-12-07T19:00:19;100686.63;;;1.32;100.00
29315;BME280;16320;53.954;9.506;2022-12-07T19:03:24;100692.66;;;1.33;100.00
29315;BME280;16320;53.954;9.506;2022-12-07T19:06:36;100695.19;;;1.36;100.00
29315;BME280;16320;53.954;9.506;2022-12-07T19:09:41;100690.88;;;1.35;100.00
29315;BME280;16320;53.954;9.506;2022-12-07T19:12:47;100689.22;;;1.32;100.00
29315;BME280;16320;53.954;9.506;2022-12-07T19:15:52;100686.66;;;1.29;100.00
29315;BME280;16320;53.954;9.506;2022-12-07T19:18:57;100693.56;;;1.30;100.00
29315;BME280;16320;53.954;9.506;2022-12-07T19:22:03;100679.72;;;1.33;100.00
29315;BME280;16320;53.954;9.506;2022-12-07T19:25:08;100673.78;;;1.24;100.00
29315;BME280;16320;53.954;9.506;2022-12-07T19:28:13;100677.25;;;1.23;100.00
29315;BME280;16320;53.954;9.506;2022-12-07T19:31:17;100670.50;;;1.13;100.00
29315;BME280;16320;53.954;9.506;2022-12-07T19:34:22;100674.84;;;1.11;100.00
29315;BME280;16320;53.954;9.506;2022-12-07T19:37:27;100678.13;;;1.22;100.00
29315;BME280;16320;53.954;9.506;2022-12-07T19:40:34;100675.56;;;1.22;100.00
29315;BME280;16320;53.954;9.506;2022-12-07T19:43:41;100678.16;;;1.21;100.00
29315;BME280;16320;53.954;9.506;2022-12-07T19:46:48;100684.19;;;1.21;100.00
29315;BME280;16320;53.954;9.506;2022-12-07T19:49:54;100671.19;;;1.26;100.00
29315;BME280;16320;53.954;9.506;2022-12-07T19:52:59;100666.78;;;1.33;100.00
29315;BME280;16320;53.954;9.506;2022-12-07T19:56:05;100655.56;;;1.32;100.00
29315;BME280;16320;53.954;9.506;2022-12-07T19:59:11;100656.50;;;1.26;100.00
29315;BME280;16320;53.954;9.506;2022-12-07T20:02:16;100655.53;;;1.35;100.00
29315;BME280;16320;53.954;9.506;2022-12-07T20:05:21;100654.56;;;1.41;100.00
29315;BME280;16320;53.954;9.506;2022-12-07T20:08:30;100646.75;;;1.44;100.00
29315;BME280;16320;53.954;9.506;2022-12-07T20:11:35;100645.00;;;1.46;100.00
29315;BME280;16320;53.954;9.506;2022-12-07T20:15:08;100635.50;;;1.48;100.00
29315;BME280;16320;53.954;9.506;2022-12-07T20:18:13;100631.97;;;1.52;100.00
29315;BME280;16320;53.954;9.506;2022-12-07T20:21:18;100632.78;;;1.54;100.00
29315;BME280;16320;53.954;9.506;2022-12-07T20:24:24;100634.47;;;1.58;100.00
29315;BME280;16320;53.954;9.506;2022-12-07T20:27:28;100617.16;;;1.60;100.00
29315;BME280;16320;53.954;9.506;2022-12-07T20:30:33;100614.56;;;1.62;100.00
29315;BME280;16320;53.954;9.506;2022-12-07T20:33:38;100611.94;;;1.63;100.00
29315;BME280;16320;53.954;9.506;2022-12-07T20:36:43;100614.47;;;1.67;100.00
29315;BME280;16320;53.954;9.506;2022-12-07T20:39:48;100612.75;;;1.65;100.00
29315;BME280;16320;53.954;9.506;2022-12-07T20:42:52;100608.47;;;1.66;100.00
29315;BME280;16320;53.954;9.506;2022-12-07T20:45:57;100605.84;;;1.68;100.00
29315;BME280;16320;53.954;9.506;2022-12-07T20:49:02;100605.84;;;1.68;100.00
29315;BME280;16320;53.954;9.506;2022-12-07T20:52:07;100611.88;;;1.68;100.00
29315;BME280;16320;53.954;9.506;2022-12-07T20:55:12;100610.13;;;1.69;100.00
29315;BME280;16320;53.954;9.506;2022-12-07T20:58:21;100616.16;;;1.71;100.00
29315;BME280;16320;53.954;9.506;2022-12-07T21:01:37;100618.69;;;1.72;100.00
29315;BME280;16320;53.954;9.506;2022-12-07T21:04:54;100612.66;;;1.72;100.00
29315;BME280;16320;53.954;9.506;2022-12-07T21:07:59;100624.75;;;1.73;100.00
29315;BME280;16320;53.954;9.506;2022-12-07T21:11:07;100618.69;;;1.72;100.00
29315;BME280;16320;53.954;9.506;2022-12-07T21:14:12;100621.25;;;1.74;100.00
29315;BME280;16320;53.954;9.506;2022-12-07T21:17:16;100609.25;;;1.70;100.00
29315;BME280;16320;53.954;9.506;2022-12-07T21:20:21;100605.00;;;1.65;100.00
29315;BME280;16320;53.954;9.506;2022-12-07T21:23:26;100600.75;;;1.61;100.00
29315;BME280;16320;53.954;9.506;2022-12-07T21:26:34;100602.44;;;1.62;100.00
29315;BME280;16320;53.954;9.506;2022-12-07T21:29:39;100592.19;;;1.59;100.00
29315;BME280;16320;53.954;9.506;2022-12-07T21:32:47;100590.47;;;1.58;100.00
29315;BME280;16320;53.954;9.506;2022-12-07T21:35:52;100586.19;;;1.54;100.00
29315;BME280;16320;53.954;9.506;2022-12-07T21:38:57;100584.53;;;1.52;100.00
29315;BME280;16320;53.954;9.506;2022-12-07T21:42:01;100584.56;;;1.49;100.00
29315;BME280;16320;53.954;9.506;2022-12-07T21:45:06;100584.66;;;1.42;100.00
29315;BME280;16320;53.954;9.506;2022-12-07T21:48:10;100575.25;;;1.38;100.00
29315;BME280;16320;53.954;9.506;2022-12-07T21:51:15;100568.34;;;1.39;100.00
29315;BME280;16320;53.954;9.506;2022-12-07T21:54:20;100566.63;;;1.38;100.00
29315;BME280;16320;53.954;9.506;2022-12-07T21:57:31;100567.50;;;1.38;100.00
29315;BME280;16320;53.954;9.506;2022-12-07T22:00:38;100561.44;;;1.38;100.00
29315;BME280;16320;53.954;9.506;2022-12-07T22:03:46;100556.31;;;1.35;100.00
29315;BME280;16320;53.954;9.506;2022-12-07T22:06:55;100554.59;;;1.37;100.00
29315;BME280;16320;53.954;9.506;2022-12-07T22:10:00;100551.97;;;1.38;100.00
29315;BME280;16320;53.954;9.506;2022-12-07T22:13:05;100556.28;;;1.38;100.00
29315;BME280;16320;53.954;9.506;2022-12-07T22:16:09;100558.00;;;1.39;100.00
29315;BME280;16320;53.954;9.506;2022-12-07T22:19:14;100553.66;;;1.39;100.00
29315;BME280;16320;53.954;9.506;2022-12-07T22:22:18;100539.00;;;1.40;100.00
29315;BME280;16320;53.954;9.506;2022-12-07T22:25:23;100542.44;;;1.40;100.00
29315;BME280;16320;53.954;9.506;2022-12-07T22:28:27;100530.41;;;1.38;100.00
29315;BME280;16320;53.954;9.506;2022-12-07T22:31:32;100526.09;;;1.38;100.00
29315;BME280;16320;53.954;9.506;2022-12-07T22:34:37;100521.75;;;1.39;100.00
29315;BME280;16320;53.954;9.506;2022-12-07T22:37:41;100519.25;;;1.34;100.00
29315;BME280;16320;53.954;9.506;2022-12-07T22:40:46;100510.75;;;1.27;100.00
29315;BME280;16320;53.954;9.506;2022-12-07T22:43:50;100514.09;;;1.33;100.00
29315;BME280;16320;53.954;9.506;2022-12-07T22:46:58;100503.75;;;1.33;100.00
29315;BME280;16320;53.954;9.506;2022-12-07T22:50:07;100494.34;;;1.28;100.00
29315;BME280;16320;53.954;9.506;2022-12-07T22:53:15;100490.81;;;1.33;100.00
29315;BME280;16320;53.954;9.506;2022-12-07T22:56:22;100489.03;;;1.35;100.00
29315;BME280;16320;53.954;9.506;2022-12-07T22:59:29;100487.34;;;1.34;100.00
29315;BME280;16320;53.954;9.506;2022-12-07T23:02:37;100471.03;;;1.30;100.00
29315;BME280;16320;53.954;9.506;2022-12-07T23:05:47;100466.75;;;1.27;100.00
29315;BME280;16320;53.954;9.506;2022-12-07T23:09:02;100457.28;;;1.26;100.00
29315;BME280;16320;53.954;9.506;2022-12-07T23:12:17;100457.28;;;1.25;100.00
29315;BME280;16320;53.954;9.506;2022-12-07T23:15:48;100450.44;;;1.24;100.00
29315;BME280;16320;53.954;9.506;2022-12-07T23:18:58;100452.16;;;1.22;100.00
29315;BME280;16320;53.954;9.506;2022-12-07T23:22:10;100456.56;;;1.18;100.00
29315;BME280;16320;53.954;9.506;2022-12-07T23:25:26;100450.53;;;1.18;100.00
29315;BME280;16320;53.954;9.506;2022-12-07T23:28:33;100442.75;;;1.19;100.00
29315;BME280;16320;53.954;9.506;2022-12-07T23:31:48;100442.72;;;1.21;100.00
29315;BME280;16320;53.954;9.506;2022-12-07T23:35:26;100437.53;;;1.22;100.00
29315;BME280;16320;53.954;9.506;2022-12-07T23:38:44;100434.03;;;1.23;100.00
29315;BME280;16320;53.954;9.506;2022-12-07T23:42:14;100423.69;;;1.23;100.00
29315;BME280;16320;53.954;9.506;2022-12-07T23:45:44;100422.00;;;1.22;100.00
29315;BME280;16320;53.954;9.506;2022-12-07T23:49:02;100416.88;;;1.19;100.00
29315;BME280;16320;53.954;9.506;2022-12-07T23:52:33;100421.22;;;1.17;100.00
29315;BME280;16320;53.954;9.506;2022-12-07T23:55:59;100417.72;;;1.20;100.00
29315;BME280;16320;53.954;9.506;2022-12-07T23:59:37;100405.69;;;1.19;100.00
